SVA1267 OERK-OEGS
Flight info
| Callsign | SVA1267 |
|---|---|
| Flight time | 1h 9m |
| Altitude | 28000 |
| Route | IVONU Z710 GAS |
| Aircraft | A321/M-SDE3FGHIRWY/LB1 |
Departure
| Time | 2026-04-20 14:50 |
|---|---|
| Airport | King Khalid International Airport (OERK) |
Arrival
| Time | 2026-04-20 16:00 |
|---|---|
| Airport | Prince Naif bin Abdulaziz International Airport (OEGS) |
| Time | Latitude | Longitude | Altitude | Speed | Heading |
|---|---|---|---|---|---|
| 2026-04-20 14:28 | 24.94875 | 46.71348 | 2063 ft | 0 kts | 240° |
| 2026-04-20 14:37 | 24.94876 | 46.71351 | 2063 ft | 3 kts | 240° |
| 2026-04-20 14:37 | 24.94889 | 46.71377 | 2063 ft | 4 kts | 243° |
| 2026-04-20 14:37 | 24.94900 | 46.71404 | 2063 ft | 4 kts | 249° |
| 2026-04-20 14:37 | 24.94908 | 46.71432 | 2063 ft | 4 kts | 263° |
| 2026-04-20 14:38 | 24.94907 | 46.71458 | 2063 ft | 4 kts | 312° |
| 2026-04-20 14:38 | 24.94902 | 46.71464 | 2063 ft | 0 kts | 330° |
| 2026-04-20 14:39 | 24.94902 | 46.71463 | 2063 ft | 0 kts | 330° |
| 2026-04-20 14:42 | 24.94914 | 46.71456 | 2063 ft | 4 kts | 330° |
| 2026-04-20 14:42 | 24.94955 | 46.71430 | 2063 ft | 10 kts | 330° |
| 2026-04-20 14:42 | 24.95028 | 46.71383 | 2063 ft | 15 kts | 330° |
| 2026-04-20 14:43 | 24.95059 | 46.71363 | 2063 ft | 0 kts | 330° |
| 2026-04-20 14:43 | 24.95066 | 46.71359 | 2063 ft | 4 kts | 330° |
| 2026-04-20 14:44 | 24.95129 | 46.71319 | 2063 ft | 17 kts | 330° |
| 2026-04-20 14:44 | 24.95253 | 46.71242 | 2063 ft | 21 kts | 331° |
| 2026-04-20 14:44 | 24.95380 | 46.71167 | 2063 ft | 20 kts | 353° |
| 2026-04-20 14:44 | 24.95472 | 46.71226 | 2063 ft | 14 kts | 6° |
| 2026-04-20 14:45 | 24.95556 | 46.71182 | 2063 ft | 13 kts | 327° |
| 2026-04-20 14:45 | 24.95648 | 46.71123 | 2063 ft | 20 kts | 330° |
| 2026-04-20 14:45 | 24.95803 | 46.71026 | 2063 ft | 29 kts | 330° |
| 2026-04-20 14:45 | 24.95977 | 46.70916 | 2063 ft | 28 kts | 329° |
| 2026-04-20 14:46 | 24.96143 | 46.70812 | 2063 ft | 28 kts | 323° |
| 2026-04-20 14:46 | 24.96303 | 46.70703 | 2063 ft | 27 kts | 330° |
| 2026-04-20 14:46 | 24.96460 | 46.70599 | 2063 ft | 26 kts | 332° |
| 2026-04-20 14:46 | 24.96613 | 46.70504 | 2063 ft | 25 kts | 331° |
| 2026-04-20 14:47 | 24.96756 | 46.70418 | 2063 ft | 21 kts | 330° |
| 2026-04-20 14:47 | 24.96865 | 46.70350 | 2063 ft | 17 kts | 331° |
| 2026-04-20 14:47 | 24.96970 | 46.70288 | 2063 ft | 16 kts | 341° |
| 2026-04-20 14:48 | 24.97048 | 46.70356 | 2063 ft | 3 kts | 64° |
| 2026-04-20 14:48 | 24.97057 | 46.70376 | 2063 ft | 3 kts | 63° |
| 2026-04-20 14:48 | 24.97078 | 46.70421 | 2063 ft | 15 kts | 62° |
| 2026-04-20 14:48 | 24.97114 | 46.70521 | 2063 ft | 12 kts | 115° |
| 2026-04-20 14:49 | 24.97086 | 46.70544 | 2063 ft | 0 kts | 151° |
| 2026-04-20 14:49 | 24.97052 | 46.70565 | 2063 ft | 29 kts | 149° |
| 2026-04-20 14:49 | 24.96663 | 46.70814 | 2064 ft | 98 kts | 148° |
| 2026-04-20 14:50 | 24.95891 | 46.71303 | 2064 ft | 155 kts | 146° |
| 2026-04-20 14:50 | 24.94848 | 46.71938 | 2318 ft | 173 kts | 148° |
| 2026-04-20 14:50 | 24.93814 | 46.72570 | 2820 ft | 177 kts | 141° |
| 2026-04-20 14:50 | 24.93114 | 46.73247 | 3240 ft | 176 kts | 128° |
| 2026-04-20 14:51 | 24.92358 | 46.74203 | 3733 ft | 182 kts | 131° |
| 2026-04-20 14:51 | 24.91735 | 46.74823 | 3917 ft | 196 kts | 139° |
| 2026-04-20 14:51 | 24.90852 | 46.75554 | 4165 ft | 201 kts | 146° |
| 2026-04-20 14:51 | 24.89977 | 46.75932 | 4248 ft | 212 kts | 171° |
| 2026-04-20 14:52 | 24.88471 | 46.75611 | 4344 ft | 230 kts | 208° |
| 2026-04-20 14:52 | 24.87397 | 46.74345 | 4433 ft | 250 kts | 243° |
| 2026-04-20 14:52 | 24.87085 | 46.72481 | 4611 ft | 267 kts | 275° |
| 2026-04-20 14:52 | 24.87630 | 46.70463 | 4874 ft | 281 kts | 292° |
| 2026-04-20 14:53 | 24.88390 | 46.68457 | 5327 ft | 286 kts | 290° |
| 2026-04-20 14:53 | 24.89000 | 46.66358 | 5853 ft | 288 kts | 281° |
| 2026-04-20 14:53 | 24.89391 | 46.64195 | 6387 ft | 289 kts | 277° |
| 2026-04-20 14:53 | 24.89704 | 46.62028 | 6907 ft | 291 kts | 276° |
| 2026-04-20 14:54 | 24.90034 | 46.59820 | 7419 ft | 293 kts | 277° |
| 2026-04-20 14:54 | 24.90403 | 46.57609 | 7924 ft | 295 kts | 278° |
| 2026-04-20 14:54 | 24.90722 | 46.55817 | 8325 ft | 297 kts | 278° |
| 2026-04-20 14:54 | 24.91129 | 46.53525 | 8817 ft | 299 kts | 278° |
| 2026-04-20 14:55 | 24.91456 | 46.51645 | 9214 ft | 300 kts | 278° |
| 2026-04-20 14:55 | 24.91839 | 46.49404 | 9722 ft | 300 kts | 277° |
| 2026-04-20 14:55 | 24.92223 | 46.47140 | 10230 ft | 302 kts | 277° |
| 2026-04-20 14:55 | 24.92355 | 46.46359 | 10350 ft | 305 kts | 277° |
| 2026-04-20 14:56 | 24.92745 | 46.44053 | 10544 ft | 318 kts | 277° |
| 2026-04-20 14:56 | 24.93164 | 46.41590 | 10702 ft | 332 kts | 277° |
| 2026-04-20 14:56 | 24.93603 | 46.39039 | 10863 ft | 346 kts | 277° |
| 2026-04-20 14:56 | 24.94056 | 46.36384 | 11018 ft | 359 kts | 277° |
| 2026-04-20 14:57 | 24.94523 | 46.33639 | 11171 ft | 371 kts | 277° |
| 2026-04-20 14:57 | 24.95004 | 46.30792 | 11320 ft | 383 kts | 277° |
| 2026-04-20 14:57 | 24.95470 | 46.28053 | 11532 ft | 391 kts | 277° |
| 2026-04-20 14:57 | 24.95977 | 46.25104 | 11976 ft | 393 kts | 277° |
| 2026-04-20 14:58 | 24.96483 | 46.22143 | 12471 ft | 393 kts | 277° |
| 2026-04-20 14:58 | 24.96985 | 46.19172 | 12949 ft | 394 kts | 277° |
| 2026-04-20 14:58 | 24.97485 | 46.16198 | 13408 ft | 396 kts | 277° |
| 2026-04-20 14:58 | 24.97985 | 46.13218 | 13862 ft | 397 kts | 277° |
| 2026-04-20 14:59 | 24.98493 | 46.10219 | 14309 ft | 398 kts | 277° |
| 2026-04-20 14:59 | 24.98664 | 46.09204 | 14467 ft | 398 kts | 277° |
| 2026-04-20 14:59 | 24.98816 | 46.08305 | 14623 ft | 397 kts | 277° |
| 2026-04-20 15:00 | 24.99039 | 46.06981 | 14818 ft | 398 kts | 277° |
| 2026-04-20 15:00 | 24.99555 | 46.03909 | 15240 ft | 400 kts | 277° |
| 2026-04-20 15:01 | 25.00063 | 46.00885 | 15663 ft | 401 kts | 277° |
| 2026-04-20 15:01 | 25.00575 | 45.97854 | 16070 ft | 403 kts | 277° |
| 2026-04-20 15:01 | 25.01085 | 45.94815 | 16472 ft | 404 kts | 277° |
| 2026-04-20 15:01 | 25.01593 | 45.91765 | 16873 ft | 405 kts | 276° |
| 2026-04-20 15:02 | 25.02105 | 45.88702 | 17269 ft | 406 kts | 277° |
| 2026-04-20 15:02 | 25.02444 | 45.86672 | 17538 ft | 407 kts | 276° |
| 2026-04-20 15:02 | 25.02883 | 45.84041 | 17854 ft | 408 kts | 277° |
| 2026-04-20 15:02 | 25.03386 | 45.81018 | 18224 ft | 409 kts | 277° |
| 2026-04-20 15:03 | 25.03898 | 45.77928 | 18604 ft | 409 kts | 276° |
| 2026-04-20 15:03 | 25.04411 | 45.74836 | 18861 ft | 410 kts | 277° |
| 2026-04-20 15:03 | 25.04926 | 45.71745 | 18875 ft | 410 kts | 277° |
| 2026-04-20 15:03 | 25.05474 | 45.68696 | 18873 ft | 411 kts | 280° |
| 2026-04-20 15:04 | 25.06380 | 45.65690 | 18869 ft | 416 kts | 288° |
| 2026-04-20 15:04 | 25.07189 | 45.63718 | 18873 ft | 418 kts | 290° |
| 2026-04-20 15:04 | 25.08898 | 45.59898 | 18874 ft | 419 kts | 292° |
| 2026-04-20 15:04 | 25.10215 | 45.57029 | 18873 ft | 419 kts | 292° |
| 2026-04-20 15:05 | 25.11510 | 45.54144 | 18873 ft | 418 kts | 291° |
| 2026-04-20 15:05 | 25.12768 | 45.51251 | 18872 ft | 418 kts | 290° |
| 2026-04-20 15:05 | 25.14007 | 45.48355 | 18872 ft | 418 kts | 290° |
| 2026-04-20 15:05 | 25.14830 | 45.46435 | 18872 ft | 418 kts | 290° |
| 2026-04-20 15:06 | 25.16506 | 45.42565 | 18871 ft | 418 kts | 291° |
| 2026-04-20 15:06 | 25.17772 | 45.39668 | 18870 ft | 418 kts | 291° |
| 2026-04-20 15:06 | 25.19034 | 45.36781 | 18878 ft | 418 kts | 291° |
| 2026-04-20 15:06 | 25.19869 | 45.34865 | 18876 ft | 418 kts | 291° |
| 2026-04-20 15:07 | 25.21131 | 45.31959 | 18876 ft | 417 kts | 290° |
| 2026-04-20 15:07 | 25.22791 | 45.28125 | 18883 ft | 418 kts | 290° |
| 2026-04-20 15:07 | 25.24046 | 45.25228 | 19016 ft | 419 kts | 290° |
| 2026-04-20 15:07 | 25.25309 | 45.22313 | 19355 ft | 421 kts | 290° |
| 2026-04-20 15:08 | 25.26146 | 45.20383 | 19576 ft | 422 kts | 291° |
| 2026-04-20 15:08 | 25.27417 | 45.17447 | 19906 ft | 423 kts | 290° |
| 2026-04-20 15:08 | 25.28688 | 45.14509 | 20223 ft | 424 kts | 291° |
| 2026-04-20 15:08 | 25.30391 | 45.10567 | 20637 ft | 426 kts | 291° |
| 2026-04-20 15:09 | 25.31235 | 45.08612 | 20842 ft | 427 kts | 291° |
| 2026-04-20 15:09 | 25.32936 | 45.04672 | 21237 ft | 428 kts | 291° |
| 2026-04-20 15:09 | 25.33803 | 45.02661 | 21424 ft | 429 kts | 291° |
| 2026-04-20 15:09 | 25.35507 | 44.98710 | 21806 ft | 431 kts | 291° |
| 2026-04-20 15:10 | 25.36378 | 44.96688 | 21988 ft | 431 kts | 291° |
| 2026-04-20 15:10 | 25.38087 | 44.92715 | 22321 ft | 434 kts | 291° |
| 2026-04-20 15:10 | 25.39387 | 44.89691 | 22568 ft | 435 kts | 291° |
| 2026-04-20 15:10 | 25.40251 | 44.87684 | 22743 ft | 436 kts | 291° |
| 2026-04-20 15:11 | 25.41554 | 44.84653 | 22993 ft | 437 kts | 291° |
| 2026-04-20 15:11 | 25.42860 | 44.81613 | 23235 ft | 438 kts | 291° |
| 2026-04-20 15:11 | 25.44169 | 44.78562 | 23470 ft | 439 kts | 291° |
| 2026-04-20 15:11 | 25.45478 | 44.75505 | 23692 ft | 441 kts | 291° |
| 2026-04-20 15:12 | 25.46792 | 44.72436 | 23909 ft | 442 kts | 291° |
| 2026-04-20 15:12 | 25.48113 | 44.69352 | 24198 ft | 441 kts | 291° |
| 2026-04-20 15:12 | 25.49423 | 44.66295 | 24554 ft | 439 kts | 291° |
| 2026-04-20 15:12 | 25.50730 | 44.63242 | 24909 ft | 437 kts | 291° |
| 2026-04-20 15:13 | 25.52035 | 44.60218 | 25216 ft | 437 kts | 292° |
| 2026-04-20 15:13 | 25.53626 | 44.57330 | 25559 ft | 441 kts | 301° |
| 2026-04-20 15:13 | 25.55670 | 44.54769 | 25880 ft | 447 kts | 310° |
| 2026-04-20 15:13 | 25.57941 | 44.52420 | 26208 ft | 447 kts | 312° |
| 2026-04-20 15:14 | 25.60265 | 44.50130 | 26512 ft | 447 kts | 313° |
| 2026-04-20 15:14 | 25.62582 | 44.47846 | 26835 ft | 445 kts | 312° |
| 2026-04-20 15:14 | 25.64867 | 44.45532 | 27167 ft | 443 kts | 311° |
| 2026-04-20 15:14 | 25.67110 | 44.43195 | 27472 ft | 442 kts | 311° |
| 2026-04-20 15:15 | 25.69334 | 44.40852 | 27779 ft | 440 kts | 311° |
| 2026-04-20 15:15 | 25.71561 | 44.38523 | 27855 ft | 439 kts | 311° |
| 2026-04-20 15:15 | 25.73800 | 44.36212 | 27851 ft | 440 kts | 311° |
| 2026-04-20 15:15 | 25.76015 | 44.33940 | 27849 ft | 440 kts | 311° |
| 2026-04-20 15:16 | 25.78261 | 44.31628 | 27847 ft | 441 kts | 311° |
| 2026-04-20 15:16 | 25.80502 | 44.29313 | 27845 ft | 440 kts | 311° |
| 2026-04-20 15:16 | 25.82743 | 44.26991 | 27843 ft | 441 kts | 311° |
| 2026-04-20 15:16 | 25.84980 | 44.24668 | 27841 ft | 441 kts | 311° |
| 2026-04-20 15:17 | 25.87223 | 44.22339 | 27748 ft | 439 kts | 311° |
| 2026-04-20 15:17 | 25.89448 | 44.20033 | 27301 ft | 436 kts | 311° |
| 2026-04-20 15:17 | 25.91663 | 44.17740 | 26492 ft | 436 kts | 311° |
| 2026-04-20 15:17 | 25.93890 | 44.15427 | 25395 ft | 442 kts | 311° |
| 2026-04-20 15:18 | 25.96145 | 44.13077 | 24406 ft | 447 kts | 311° |
| 2026-04-20 15:18 | 25.98413 | 44.10722 | 23780 ft | 442 kts | 311° |
| 2026-04-20 15:18 | 26.00655 | 44.08398 | 23310 ft | 440 kts | 311° |
| 2026-04-20 15:18 | 26.02884 | 44.06086 | 22724 ft | 436 kts | 311° |
| 2026-04-20 15:19 | 26.05092 | 44.03791 | 22138 ft | 432 kts | 311° |
| 2026-04-20 15:19 | 26.07279 | 44.01510 | 21526 ft | 429 kts | 311° |
| 2026-04-20 15:19 | 26.09465 | 43.99223 | 20582 ft | 435 kts | 310° |
| 2026-04-20 15:19 | 26.11707 | 43.96864 | 17048 ft | 484 kts | 311° |
| 2026-04-20 15:20 | 26.14237 | 43.94179 | 14830 ft | 503 kts | 312° |
| 2026-04-20 15:20 | 26.16679 | 43.91665 | 15458 ft | 445 kts | 312° |
| 2026-04-20 15:20 | 26.18901 | 43.89477 | 16707 ft | 420 kts | 313° |
| 2026-04-20 15:20 | 26.21296 | 43.87521 | 14959 ft | 436 kts | 322° |
| 2026-04-20 15:21 | 26.24220 | 43.85981 | 12050 ft | 485 kts | 341° |
| 2026-04-20 15:21 | 26.27292 | 43.85582 | 13657 ft | 405 kts | 360° |
| 2026-04-20 15:21 | 26.30045 | 43.86091 | 14653 ft | 400 kts | 12° |
| 2026-04-20 15:21 | 26.32596 | 43.87349 | 13437 ft | 409 kts | 30° |
| 2026-04-20 15:22 | 26.34913 | 43.89404 | 11180 ft | 438 kts | 41° |
| 2026-04-20 15:22 | 26.35170 | 43.89661 | 10838 ft | 445 kts | 41° |
| 2026-04-20 15:23 | 26.37204 | 43.91660 | 8569 ft | 469 kts | 40° |
| 2026-04-20 15:24 | 26.39549 | 43.93619 | 6959 ft | 467 kts | 32° |
| 2026-04-20 15:24 | 26.42076 | 43.95380 | 8039 ft | 393 kts | 32° |
| 2026-04-20 15:24 | 26.44410 | 43.96736 | 7671 ft | 369 kts | 18° |
| 2026-04-20 15:24 | 26.46902 | 43.97106 | 6970 ft | 357 kts | 355° |
| 2026-04-20 15:25 | 26.49227 | 43.96363 | 6345 ft | 344 kts | 330° |
| 2026-04-20 15:25 | 26.50994 | 43.94674 | 5753 ft | 329 kts | 304° |
| 2026-04-20 15:25 | 26.51985 | 43.92285 | 5418 ft | 362 kts | 287° |
| 2026-04-20 15:25 | 26.52723 | 43.89422 | 5039 ft | 395 kts | 285° |
| 2026-04-20 15:26 | 26.53482 | 43.86539 | 4681 ft | 380 kts | 286° |
| 2026-04-20 15:26 | 26.54176 | 43.83770 | 4624 ft | 357 kts | 284° |
| 2026-04-20 15:26 | 26.54658 | 43.81171 | 4828 ft | 327 kts | 278° |
| 2026-04-20 15:26 | 26.54887 | 43.78757 | 4893 ft | 305 kts | 272° |
| 2026-04-20 15:27 | 26.54875 | 43.76473 | 4930 ft | 284 kts | 266° |
| 2026-04-20 15:27 | 26.54678 | 43.74358 | 4952 ft | 263 kts | 261° |
| 2026-04-20 15:27 | 26.54362 | 43.72421 | 4964 ft | 244 kts | 257° |
| 2026-04-20 15:27 | 26.53985 | 43.70668 | 5008 ft | 219 kts | 253° |
| 2026-04-20 15:28 | 26.53557 | 43.69082 | 5019 ft | 210 kts | 250° |
| 2026-04-20 15:28 | 26.53012 | 43.67596 | 5023 ft | 202 kts | 240° |
| 2026-04-20 15:28 | 26.52078 | 43.66479 | 5053 ft | 200 kts | 210° |
| 2026-04-20 15:28 | 26.50741 | 43.66171 | 5022 ft | 199 kts | 179° |
| 2026-04-20 15:29 | 26.49407 | 43.66540 | 5030 ft | 199 kts | 158° |
| 2026-04-20 15:29 | 26.48145 | 43.67203 | 4988 ft | 199 kts | 153° |
| 2026-04-20 15:29 | 26.46928 | 43.67886 | 5009 ft | 197 kts | 153° |
| 2026-04-20 15:29 | 26.45721 | 43.68584 | 4992 ft | 188 kts | 152° |
| 2026-04-20 15:30 | 26.44602 | 43.69228 | 4904 ft | 179 kts | 152° |
| 2026-04-20 15:30 | 26.43525 | 43.69844 | 4697 ft | 172 kts | 153° |
| 2026-04-20 15:30 | 26.42453 | 43.70456 | 4521 ft | 173 kts | 153° |
| 2026-04-20 15:30 | 26.41384 | 43.71069 | 4303 ft | 173 kts | 152° |
| 2026-04-20 15:31 | 26.40319 | 43.71678 | 4128 ft | 172 kts | 153° |
| 2026-04-20 15:31 | 26.39251 | 43.72290 | 3863 ft | 171 kts | 152° |
| 2026-04-20 15:31 | 26.38230 | 43.72897 | 3639 ft | 161 kts | 152° |
| 2026-04-20 15:31 | 26.37247 | 43.73439 | 3444 ft | 156 kts | 153° |
| 2026-04-20 15:32 | 26.36268 | 43.73994 | 3247 ft | 157 kts | 152° |
| 2026-04-20 15:32 | 26.35315 | 43.74539 | 2993 ft | 149 kts | 152° |
| 2026-04-20 15:32 | 26.34410 | 43.75060 | 2804 ft | 156 kts | 152° |
| 2026-04-20 15:32 | 26.33455 | 43.75618 | 2579 ft | 153 kts | 155° |
| 2026-04-20 15:33 | 26.32471 | 43.76141 | 2379 ft | 162 kts | 150° |
| 2026-04-20 15:33 | 26.31527 | 43.76711 | 2184 ft | 149 kts | 158° |
| 2026-04-20 15:33 | 26.30644 | 43.77200 | 2147 ft | 131 kts | 160° |
| 2026-04-20 15:33 | 26.29755 | 43.77616 | 2461 ft | 149 kts | 154° |
| 2026-04-20 15:34 | 26.28976 | 43.78448 | 2926 ft | 163 kts | 120° |
| 2026-04-20 15:34 | 26.28427 | 43.79643 | 3451 ft | 183 kts | 116° |
| 2026-04-20 15:34 | 26.27837 | 43.80999 | 3924 ft | 206 kts | 115° |
| 2026-04-20 15:34 | 26.27335 | 43.82541 | 4344 ft | 216 kts | 95° |
| 2026-04-20 15:35 | 26.27652 | 43.84176 | 4572 ft | 224 kts | 57° |
| 2026-04-20 15:35 | 26.28829 | 43.85307 | 4738 ft | 230 kts | 20° |
| 2026-04-20 15:35 | 26.30356 | 43.85927 | 4971 ft | 236 kts | 21° |
| 2026-04-20 15:35 | 26.31736 | 43.86851 | 5036 ft | 228 kts | 32° |
| 2026-04-20 15:36 | 26.33020 | 43.87835 | 5043 ft | 223 kts | 31° |
| 2026-04-20 15:36 | 26.34332 | 43.88764 | 5098 ft | 223 kts | 28° |
| 2026-04-20 15:36 | 26.35767 | 43.89343 | 5058 ft | 219 kts | 3° |
| 2026-04-20 15:36 | 26.37262 | 43.89151 | 5075 ft | 217 kts | 345° |
| 2026-04-20 15:37 | 26.38723 | 43.88762 | 5072 ft | 215 kts | 344° |
| 2026-04-20 15:37 | 26.40179 | 43.88354 | 5070 ft | 214 kts | 343° |
| 2026-04-20 15:37 | 26.41629 | 43.87945 | 5077 ft | 216 kts | 343° |
| 2026-04-20 15:37 | 26.43071 | 43.87541 | 5002 ft | 216 kts | 344° |
| 2026-04-20 15:38 | 26.44534 | 43.87132 | 5088 ft | 216 kts | 343° |
| 2026-04-20 15:38 | 26.45993 | 43.86719 | 5151 ft | 218 kts | 343° |
| 2026-04-20 15:38 | 26.47454 | 43.86307 | 5082 ft | 215 kts | 343° |
| 2026-04-20 15:38 | 26.48912 | 43.85897 | 5119 ft | 217 kts | 343° |
| 2026-04-20 15:39 | 26.50329 | 43.85361 | 5099 ft | 215 kts | 328° |
| 2026-04-20 15:39 | 26.51467 | 43.84306 | 5067 ft | 214 kts | 315° |
| 2026-04-20 15:39 | 26.52520 | 43.83143 | 5114 ft | 214 kts | 314° |
| 2026-04-20 15:39 | 26.53551 | 43.81947 | 5150 ft | 214 kts | 310° |
| 2026-04-20 15:40 | 26.54161 | 43.80457 | 5055 ft | 210 kts | 280° |
| 2026-04-20 15:40 | 26.54151 | 43.78889 | 5049 ft | 196 kts | 265° |
| 2026-04-20 15:40 | 26.53997 | 43.77378 | 5092 ft | 194 kts | 265° |
| 2026-04-20 15:40 | 26.53878 | 43.75872 | 5063 ft | 199 kts | 266° |
| 2026-04-20 15:41 | 26.53756 | 43.74359 | 5001 ft | 194 kts | 263° |
| 2026-04-20 15:41 | 26.53190 | 43.72996 | 4996 ft | 195 kts | 240° |
| 2026-04-20 15:41 | 26.52457 | 43.71729 | 5053 ft | 196 kts | 233° |
| 2026-04-20 15:41 | 26.51330 | 43.70840 | 5103 ft | 201 kts | 208° |
| 2026-04-20 15:42 | 26.49935 | 43.70761 | 5025 ft | 208 kts | 165° |
| 2026-04-20 15:42 | 26.48757 | 43.71695 | 5043 ft | 210 kts | 135° |
| 2026-04-20 15:42 | 26.47755 | 43.72895 | 5155 ft | 213 kts | 134° |
| 2026-04-20 15:42 | 26.46696 | 43.74006 | 5245 ft | 202 kts | 152° |
| 2026-04-20 15:43 | 26.45309 | 43.74141 | 5085 ft | 202 kts | 191° |
| 2026-04-20 15:43 | 26.43896 | 43.74091 | 4992 ft | 210 kts | 172° |
| 2026-04-20 15:43 | 26.42550 | 43.74713 | 4735 ft | 208 kts | 157° |
| 2026-04-20 15:43 | 26.41155 | 43.75014 | 4514 ft | 205 kts | 180° |
| 2026-04-20 15:44 | 26.39709 | 43.75054 | 4355 ft | 203 kts | 181° |
| 2026-04-20 15:44 | 26.38366 | 43.75106 | 4070 ft | 189 kts | 181° |
| 2026-04-20 15:44 | 26.37093 | 43.75137 | 3709 ft | 180 kts | 182° |
| 2026-04-20 15:44 | 26.35841 | 43.75119 | 3194 ft | 180 kts | 181° |
| 2026-04-20 15:45 | 26.34641 | 43.75273 | 2937 ft | 168 kts | 171° |
| 2026-04-20 15:45 | 26.33541 | 43.75623 | 2632 ft | 157 kts | 158° |
| 2026-04-20 15:45 | 26.32595 | 43.76147 | 2376 ft | 152 kts | 159° |
| 2026-04-20 15:45 | 26.31694 | 43.76629 | 2215 ft | 131 kts | 176° |
| 2026-04-20 15:46 | 26.30713 | 43.76593 | 2248 ft | 163 kts | 191° |
| 2026-04-20 15:46 | 26.29516 | 43.76571 | 2790 ft | 173 kts | 165° |
| 2026-04-20 15:46 | 26.28544 | 43.77333 | 3646 ft | 171 kts | 134° |
| 2026-04-20 15:46 | 26.27692 | 43.78266 | 4406 ft | 176 kts | 138° |
| 2026-04-20 15:47 | 26.26735 | 43.79243 | 4877 ft | 194 kts | 141° |
| 2026-04-20 15:47 | 26.25644 | 43.80118 | 5093 ft | 202 kts | 150° |
| 2026-04-20 15:47 | 26.24336 | 43.80888 | 5242 ft | 226 kts | 155° |
| 2026-04-20 15:47 | 26.22787 | 43.81732 | 4130 ft | 278 kts | 155° |
| 2026-04-20 15:48 | 26.21135 | 43.82642 | 4079 ft | 250 kts | 155° |
| 2026-04-20 15:48 | 26.19579 | 43.83434 | 4307 ft | 249 kts | 158° |
| 2026-04-20 15:48 | 26.17911 | 43.83801 | 4504 ft | 239 kts | 186° |
| 2026-04-20 15:48 | 26.16395 | 43.83288 | 4762 ft | 224 kts | 215° |
| 2026-04-20 15:49 | 26.15175 | 43.82244 | 4905 ft | 220 kts | 224° |
| 2026-04-20 15:49 | 26.14039 | 43.81110 | 4992 ft | 219 kts | 225° |
| 2026-04-20 15:49 | 26.13294 | 43.80351 | 5002 ft | 219 kts | 225° |
| 2026-04-20 15:49 | 26.11789 | 43.78808 | 5067 ft | 220 kts | 227° |
| 2026-04-20 15:50 | 26.11153 | 43.77946 | 5066 ft | 216 kts | 245° |
| 2026-04-20 15:50 | 26.10843 | 43.75838 | 5072 ft | 210 kts | 285° |
| 2026-04-20 15:50 | 26.11521 | 43.74426 | 5074 ft | 209 kts | 316° |
| 2026-04-20 15:50 | 26.12729 | 43.73518 | 5089 ft | 212 kts | 331° |
| 2026-04-20 15:51 | 26.14058 | 43.72791 | 5089 ft | 211 kts | 333° |
| 2026-04-20 15:51 | 26.15383 | 43.72106 | 5098 ft | 213 kts | 333° |
| 2026-04-20 15:51 | 26.16729 | 43.71419 | 5038 ft | 212 kts | 333° |
| 2026-04-20 15:51 | 26.18080 | 43.70735 | 5083 ft | 212 kts | 333° |
| 2026-04-20 15:52 | 26.19437 | 43.70046 | 5171 ft | 215 kts | 334° |
| 2026-04-20 15:52 | 26.20785 | 43.69363 | 5434 ft | 215 kts | 333° |
| 2026-04-20 15:52 | 26.22211 | 43.68639 | 4713 ft | 241 kts | 334° |
| 2026-04-20 15:53 | 26.24665 | 43.67388 | 4093 ft | 241 kts | 334° |
| 2026-04-20 15:53 | 26.26117 | 43.66648 | 4288 ft | 221 kts | 334° |
| 2026-04-20 15:53 | 26.27521 | 43.65929 | 4652 ft | 226 kts | 334° |
| 2026-04-20 15:53 | 26.28842 | 43.65259 | 5624 ft | 189 kts | 333° |
| 2026-04-20 15:54 | 26.30046 | 43.64655 | 5876 ft | 202 kts | 333° |
| 2026-04-20 15:54 | 26.30920 | 43.64195 | 5450 ft | 217 kts | 332° |
| 2026-04-20 15:54 | 26.32905 | 43.63175 | 4518 ft | 218 kts | 334° |
| 2026-04-20 15:54 | 26.34181 | 43.62569 | 4689 ft | 194 kts | 335° |
| 2026-04-20 15:55 | 26.35440 | 43.61952 | 4897 ft | 200 kts | 334° |
| 2026-04-20 15:55 | 26.36775 | 43.61434 | 5051 ft | 211 kts | 348° |
| 2026-04-20 15:55 | 26.38261 | 43.61672 | 5108 ft | 222 kts | 20° |
| 2026-04-20 15:55 | 26.39472 | 43.62739 | 5100 ft | 228 kts | 50° |
| 2026-04-20 15:56 | 26.40178 | 43.64338 | 5109 ft | 233 kts | 67° |
| 2026-04-20 15:56 | 26.40737 | 43.66040 | 5000 ft | 233 kts | 69° |
| 2026-04-20 15:56 | 26.41070 | 43.67801 | 4644 ft | 233 kts | 85° |
| 2026-04-20 15:56 | 26.41114 | 43.69602 | 4282 ft | 227 kts | 88° |
| 2026-04-20 15:57 | 26.41102 | 43.70721 | 4130 ft | 210 kts | 93° |
| 2026-04-20 15:57 | 26.40564 | 43.72118 | 3946 ft | 191 kts | 135° |
| 2026-04-20 15:57 | 26.39396 | 43.72696 | 3847 ft | 185 kts | 174° |
| 2026-04-20 15:57 | 26.37812 | 43.73160 | 3507 ft | 171 kts | 157° |
| 2026-04-20 15:58 | 26.36772 | 43.73722 | 3287 ft | 162 kts | 155° |
| 2026-04-20 15:58 | 26.35756 | 43.74290 | 3102 ft | 163 kts | 155° |
| 2026-04-20 15:58 | 26.35080 | 43.74675 | 2939 ft | 162 kts | 154° |
| 2026-04-20 15:58 | 26.34085 | 43.75242 | 2808 ft | 161 kts | 155° |
| 2026-04-20 15:59 | 26.33068 | 43.75836 | 2564 ft | 168 kts | 154° |
| 2026-04-20 15:59 | 26.32047 | 43.76411 | 2302 ft | 160 kts | 154° |
| 2026-04-20 15:59 | 26.31109 | 43.76941 | 2140 ft | 136 kts | 148° |
| 2026-04-20 15:59 | 26.30495 | 43.77275 | 2140 ft | 66 kts | 150° |
| 2026-04-20 16:00 | 26.30093 | 43.77511 | 2140 ft | 65 kts | 156° |
| 2026-04-20 16:00 | 26.29732 | 43.77716 | 2140 ft | 49 kts | 164° |
| 2026-04-20 16:00 | 26.29433 | 43.77721 | 2140 ft | 35 kts | 188° |
| 2026-04-20 16:00 | 26.29386 | 43.77661 | 2140 ft | 14 kts | 317° |
| 2026-04-20 16:01 | 26.29444 | 43.77642 | 2140 ft | 13 kts | 315° |
| 2026-04-20 16:01 | 26.29534 | 43.77586 | 2140 ft | 17 kts | 337° |
| 2026-04-20 16:01 | 26.29666 | 43.77519 | 2140 ft | 24 kts | 331° |
| 2026-04-20 16:01 | 26.29812 | 43.77427 | 2140 ft | 30 kts | 329° |
| 2026-04-20 16:02 | 26.30011 | 43.77311 | 2140 ft | 36 kts | 345° |
| 2026-04-20 16:02 | 26.30152 | 43.77228 | 2140 ft | 36 kts | 342° |